sensor_id;sensor_type;location;lat;lon;timestamp;P1;durP1;ratioP1;P2;durP2;ratioP2
31043;SDS011;17710;52.520;13.352;2022-09-09T00:01:07;7.97;;;5.45;;
31043;SDS011;17710;52.520;13.352;2022-09-09T00:03:39;6.20;;;5.28;;
31043;SDS011;17710;52.520;13.352;2022-09-09T00:06:17;6.05;;;5.45;;
31043;SDS011;17710;52.520;13.352;2022-09-09T00:08:52;6.55;;;5.25;;
31043;SDS011;17710;52.520;13.352;2022-09-09T00:11:28;5.80;;;5.13;;
31043;SDS011;17710;52.520;13.352;2022-09-09T00:14:02;5.78;;;5.28;;
31043;SDS011;17710;52.520;13.352;2022-09-09T00:16:35;5.50;;;5.00;;
31043;SDS011;17710;52.520;13.352;2022-09-09T00:19:05;8.02;;;5.95;;
31043;SDS011;17710;52.520;13.352;2022-09-09T00:21:39;6.18;;;5.57;;
31043;SDS011;17710;52.520;13.352;2022-09-09T00:24:23;6.22;;;5.57;;
31043;SDS011;17710;52.520;13.352;2022-09-09T00:26:53;8.20;;;5.60;;
31043;SDS011;17710;52.520;13.352;2022-09-09T00:29:26;8.35;;;5.55;;
31043;SDS011;17710;52.520;13.352;2022-09-09T00:31:59;7.93;;;5.88;;
31043;SDS011;17710;52.520;13.352;2022-09-09T00:34:37;8.63;;;5.80;;
31043;SDS011;17710;52.520;13.352;2022-09-09T00:37:12;11.13;;;6.40;;
31043;SDS011;17710;52.520;13.352;2022-09-09T00:39:43;6.70;;;5.53;;
31043;SDS011;17710;52.520;13.352;2022-09-09T00:42:13;7.43;;;5.85;;
31043;SDS011;17710;52.520;13.352;2022-09-09T00:44:46;6.00;;;5.38;;
31043;SDS011;17710;52.520;13.352;2022-09-09T00:53:09;6.65;;;5.93;;
31043;SDS011;17710;52.520;13.352;2022-09-09T00:55:48;7.53;;;5.78;;
31043;SDS011;17710;52.520;13.352;2022-09-09T00:58:21;6.65;;;5.07;;
31043;SDS011;17710;52.520;13.352;2022-09-09T01:00:50;6.88;;;5.72;;
31043;SDS011;17710;52.520;13.352;2022-09-09T01:03:29;6.32;;;5.72;;
31043;SDS011;17710;52.520;13.352;2022-09-09T01:06:01;6.82;;;6.10;;
31043;SDS011;17710;52.520;13.352;2022-09-09T01:08:41;7.35;;;6.47;;
31043;SDS011;17710;52.520;13.352;2022-09-09T01:11:21;9.45;;;5.50;;
31043;SDS011;17710;52.520;13.352;2022-09-09T01:13:53;7.18;;;6.32;;
31043;SDS011;17710;52.520;13.352;2022-09-09T01:16:25;7.57;;;6.40;;
31043;SDS011;17710;52.520;13.352;2022-09-09T01:18:55;8.60;;;6.65;;
31043;SDS011;17710;52.520;13.352;2022-09-09T01:21:25;7.53;;;6.57;;
31043;SDS011;17710;52.520;13.352;2022-09-09T01:24:05;8.18;;;7.00;;
31043;SDS011;17710;52.520;13.352;2022-09-09T01:26:43;11.43;;;7.18;;
31043;SDS011;17710;52.520;13.352;2022-09-09T01:29:12;8.95;;;6.75;;
31043;SDS011;17710;52.520;13.352;2022-09-09T01:31:42;7.63;;;6.80;;
31043;SDS011;17710;52.520;13.352;2022-09-09T01:34:18;7.35;;;6.65;;
31043;SDS011;17710;52.520;13.352;2022-09-09T01:36:45;10.20;;;7.13;;
31043;SDS011;17710;52.520;13.352;2022-09-09T01:39:18;10.25;;;6.60;;
31043;SDS011;17710;52.520;13.352;2022-09-09T01:41:47;7.55;;;6.85;;
31043;SDS011;17710;52.520;13.352;2022-09-09T01:44:17;9.82;;;6.47;;
31043;SDS011;17710;52.520;13.352;2022-09-09T01:46:47;7.57;;;6.70;;
31043;SDS011;17710;52.520;13.352;2022-09-09T01:49:17;9.13;;;7.10;;
31043;SDS011;17710;52.520;13.352;2022-09-09T01:51:44;7.10;;;6.40;;
31043;SDS011;17710;52.520;13.352;2022-09-09T01:54:14;6.70;;;6.10;;
31043;SDS011;17710;52.520;13.352;2022-09-09T01:56:43;7.03;;;6.35;;
31043;SDS011;17710;52.520;13.352;2022-09-09T01:59:33;7.45;;;6.68;;
31043;SDS011;17710;52.520;13.352;2022-09-09T02:02:11;8.48;;;6.43;;
31043;SDS011;17710;52.520;13.352;2022-09-09T02:04:47;6.93;;;6.22;;
31043;SDS011;17710;52.520;13.352;2022-09-09T02:10:09;7.72;;;6.95;;
31043;SDS011;17710;52.520;13.352;2022-09-09T02:12:40;7.32;;;6.63;;
31043;SDS011;17710;52.520;13.352;2022-09-09T02:15:11;7.30;;;6.60;;
31043;SDS011;17710;52.520;13.352;2022-09-09T02:17:44;8.45;;;6.88;;
31043;SDS011;17710;52.520;13.352;2022-09-09T02:20:13;9.63;;;6.63;;
31043;SDS011;17710;52.520;13.352;2022-09-09T02:22:43;8.30;;;6.03;;
31043;SDS011;17710;52.520;13.352;2022-09-09T02:25:12;7.55;;;6.80;;
31043;SDS011;17710;52.520;13.352;2022-09-09T02:27:43;7.97;;;6.75;;
31043;SDS011;17710;52.520;13.352;2022-09-09T02:30:12;8.48;;;6.78;;
31043;SDS011;17710;52.520;13.352;2022-09-09T02:32:40;7.95;;;6.63;;
31043;SDS011;17710;52.520;13.352;2022-09-09T02:35:12;6.78;;;6.07;;
31043;SDS011;17710;52.520;13.352;2022-09-09T02:37:41;9.25;;;6.72;;
31043;SDS011;17710;52.520;13.352;2022-09-09T02:40:11;10.13;;;6.57;;
31043;SDS011;17710;52.520;13.352;2022-09-09T02:42:40;7.47;;;6.68;;
31043;SDS011;17710;52.520;13.352;2022-09-09T02:45:09;7.10;;;6.40;;
31043;SDS011;17710;52.520;13.352;2022-09-09T02:47:37;7.50;;;6.07;;
31043;SDS011;17710;52.520;13.352;2022-09-09T02:50:12;6.43;;;5.88;;
31043;SDS011;17710;52.520;13.352;2022-09-09T02:52:47;6.82;;;6.13;;
31043;SDS011;17710;52.520;13.352;2022-09-09T02:55:24;7.28;;;6.43;;
31043;SDS011;17710;52.520;13.352;2022-09-09T02:58:01;6.78;;;5.65;;
31043;SDS011;17710;52.520;13.352;2022-09-09T03:00:35;8.77;;;6.18;;
31043;SDS011;17710;52.520;13.352;2022-09-09T03:03:02;9.00;;;6.07;;
31043;SDS011;17710;52.520;13.352;2022-09-09T03:05:29;6.97;;;6.28;;
31043;SDS011;17710;52.520;13.352;2022-09-09T03:07:56;7.25;;;6.13;;
31043;SDS011;17710;52.520;13.352;2022-09-09T03:10:23;9.63;;;6.30;;
31043;SDS011;17710;52.520;13.352;2022-09-09T03:12:50;8.05;;;6.30;;
31043;SDS011;17710;52.520;13.352;2022-09-09T03:15:17;8.30;;;6.45;;
31043;SDS011;17710;52.520;13.352;2022-09-09T03:17:45;10.10;;;5.65;;
31043;SDS011;17710;52.520;13.352;2022-09-09T03:20:12;8.32;;;5.53;;
31043;SDS011;17710;52.520;13.352;2022-09-09T03:22:41;9.20;;;6.50;;
31043;SDS011;17710;52.520;13.352;2022-09-09T03:25:08;9.40;;;5.95;;
31043;SDS011;17710;52.520;13.352;2022-09-09T03:27:37;6.45;;;5.75;;
31043;SDS011;17710;52.520;13.352;2022-09-09T03:30:06;8.57;;;5.93;;
31043;SDS011;17710;52.520;13.352;2022-09-09T03:32:33;6.75;;;6.05;;
31043;SDS011;17710;52.520;13.352;2022-09-09T03:35:01;6.20;;;5.60;;
31043;SDS011;17710;52.520;13.352;2022-09-09T03:37:28;8.52;;;6.60;;
31043;SDS011;17710;52.520;13.352;2022-09-09T03:39:55;10.30;;;6.35;;
31043;SDS011;17710;52.520;13.352;2022-09-09T03:42:21;8.90;;;6.00;;
31043;SDS011;17710;52.520;13.352;2022-09-09T03:44:48;7.43;;;5.63;;
31043;SDS011;17710;52.520;13.352;2022-09-09T03:47:15;7.20;;;5.68;;
31043;SDS011;17710;52.520;13.352;2022-09-09T03:49:43;9.23;;;5.72;;
31043;SDS011;17710;52.520;13.352;2022-09-09T03:52:11;9.60;;;5.97;;
31043;SDS011;17710;52.520;13.352;2022-09-09T03:54:37;9.75;;;5.75;;
31043;SDS011;17710;52.520;13.352;2022-09-09T03:57:04;6.68;;;5.68;;
31043;SDS011;17710;52.520;13.352;2022-09-09T03:59:34;6.78;;;6.03;;
31043;SDS011;17710;52.520;13.352;2022-09-09T04:02:01;8.13;;;5.30;;
31043;SDS011;17710;52.520;13.352;2022-09-09T04:04:27;8.10;;;5.57;;
31043;SDS011;17710;52.520;13.352;2022-09-09T04:06:57;8.02;;;5.63;;
31043;SDS011;17710;52.520;13.352;2022-09-09T04:09:24;6.32;;;4.90;;
31043;SDS011;17710;52.520;13.352;2022-09-09T04:11:51;5.30;;;4.80;;
31043;SDS011;17710;52.520;13.352;2022-09-09T04:14:22;8.30;;;5.22;;
31043;SDS011;17710;52.520;13.352;2022-09-09T04:16:52;5.43;;;4.93;;
31043;SDS011;17710;52.520;13.352;2022-09-09T04:19:19;5.40;;;4.90;;
31043;SDS011;17710;52.520;13.352;2022-09-09T04:21:46;7.63;;;4.70;;
31043;SDS011;17710;52.520;13.352;2022-09-09T04:24:18;5.75;;;4.80;;
31043;SDS011;17710;52.520;13.352;2022-09-09T04:26:46;5.95;;;4.78;;
31043;SDS011;17710;52.520;13.352;2022-09-09T04:29:12;4.82;;;4.43;;
31043;SDS011;17710;52.520;13.352;2022-09-09T04:31:38;7.43;;;4.78;;
31043;SDS011;17710;52.520;13.352;2022-09-09T04:34:06;6.05;;;4.93;;
31043;SDS011;17710;52.520;13.352;2022-09-09T04:36:33;7.63;;;4.50;;
31043;SDS011;17710;52.520;13.352;2022-09-09T04:39:00;13.10;;;4.93;;
31043;SDS011;17710;52.520;13.352;2022-09-09T04:41:27;5.03;;;4.53;;
31043;SDS011;17710;52.520;13.352;2022-09-09T04:43:55;6.78;;;4.70;;
31043;SDS011;17710;52.520;13.352;2022-09-09T04:46:24;13.40;;;4.22;;
31043;SDS011;17710;52.520;13.352;2022-09-09T04:48:51;7.38;;;3.97;;
31043;SDS011;17710;52.520;13.352;2022-09-09T04:51:19;5.32;;;4.82;;
31043;SDS011;17710;52.520;13.352;2022-09-09T04:53:46;5.88;;;4.65;;
31043;SDS011;17710;52.520;13.352;2022-09-09T04:56:14;7.88;;;4.45;;
31043;SDS011;17710;52.520;13.352;2022-09-09T04:58:43;7.38;;;4.95;;
31043;SDS011;17710;52.520;13.352;2022-09-09T05:01:14;9.50;;;4.28;;
31043;SDS011;17710;52.520;13.352;2022-09-09T05:03:43;8.23;;;4.75;;
31043;SDS011;17710;52.520;13.352;2022-09-09T05:06:11;9.30;;;4.75;;
31043;SDS011;17710;52.520;13.352;2022-09-09T05:08:40;5.32;;;4.63;;
31043;SDS011;17710;52.520;13.352;2022-09-09T05:11:13;11.95;;;4.82;;
31043;SDS011;17710;52.520;13.352;2022-09-09T05:13:42;7.50;;;4.65;;
31043;SDS011;17710;52.520;13.352;2022-09-09T05:16:10;8.48;;;4.50;;
31043;SDS011;17710;52.520;13.352;2022-09-09T05:18:42;5.75;;;3.78;;
31043;SDS011;17710;52.520;13.352;2022-09-09T05:21:11;82.95;;;8.45;;
31043;SDS011;17710;52.520;13.352;2022-09-09T05:23:38;18.92;;;4.38;;
31043;SDS011;17710;52.520;13.352;2022-09-09T05:26:05;331.75;;;19.25;;
31043;SDS011;17710;52.520;13.352;2022-09-09T05:28:37;54.15;;;5.55;;
31043;SDS011;17710;52.520;13.352;2022-09-09T05:31:04;131.35;;;9.43;;
31043;SDS011;17710;52.520;13.352;2022-09-09T05:33:33;166.82;;;11.32;;
31043;SDS011;17710;52.520;13.352;2022-09-09T05:36:02;26.63;;;5.03;;
31043;SDS011;17710;52.520;13.352;2022-09-09T05:38:30;32.47;;;4.75;;
31043;SDS011;17710;52.520;13.352;2022-09-09T05:40:58;39.58;;;5.22;;
31043;SDS011;17710;52.520;13.352;2022-09-09T05:43:25;47.33;;;5.28;;
31043;SDS011;17710;52.520;13.352;2022-09-09T05:45:59;71.13;;;7.28;;
31043;SDS011;17710;52.520;13.352;2022-09-09T05:48:27;185.30;;;12.50;;
31043;SDS011;17710;52.520;13.352;2022-09-09T05:50:57;156.32;;;13.30;;
31043;SDS011;17710;52.520;13.352;2022-09-09T05:53:25;179.77;;;11.85;;
31043;SDS011;17710;52.520;13.352;2022-09-09T05:55:58;234.45;;;16.08;;
31043;SDS011;17710;52.520;13.352;2022-09-09T05:58:25;29.83;;;5.05;;
31043;SDS011;17710;52.520;13.352;2022-09-09T06:00:51;13.07;;;4.32;;
31043;SDS011;17710;52.520;13.352;2022-09-09T06:03:19;6.75;;;3.78;;
31043;SDS011;17710;52.520;13.352;2022-09-09T06:05:56;4.45;;;3.38;;
31043;SDS011;17710;52.520;13.352;2022-09-09T06:08:27;7.40;;;3.33;;
31043;SDS011;17710;52.520;13.352;2022-09-09T06:11:00;6.00;;;3.90;;
31043;SDS011;17710;52.520;13.352;2022-09-09T06:13:27;8.52;;;3.55;;
31043;SDS011;17710;52.520;13.352;2022-09-09T06:15:57;8.02;;;3.60;;
31043;SDS011;17710;52.520;13.352;2022-09-09T06:18:24;3.58;;;3.20;;
31043;SDS011;17710;52.520;13.352;2022-09-09T06:20:57;5.20;;;3.30;;
31043;SDS011;17710;52.520;13.352;2022-09-09T06:23:25;4.22;;;3.50;;
31043;SDS011;17710;52.520;13.352;2022-09-09T06:26:00;6.65;;;3.08;;
31043;SDS011;17710;52.520;13.352;2022-09-09T06:28:27;10.48;;;3.67;;
31043;SDS011;17710;52.520;13.352;2022-09-09T06:30:56;7.30;;;3.17;;
31043;SDS011;17710;52.520;13.352;2022-09-09T06:33:30;9.25;;;3.83;;
31043;SDS011;17710;52.520;13.352;2022-09-09T06:35:57;8.15;;;3.15;;
31043;SDS011;17710;52.520;13.352;2022-09-09T06:38:28;13.43;;;4.03;;
31043;SDS011;17710;52.520;13.352;2022-09-09T06:40:55;10.35;;;3.53;;
31043;SDS011;17710;52.520;13.352;2022-09-09T06:43:23;7.10;;;3.33;;
31043;SDS011;17710;52.520;13.352;2022-09-09T06:45:53;10.10;;;2.92;;
31043;SDS011;17710;52.520;13.352;2022-09-09T06:48:20;5.00;;;3.20;;
31043;SDS011;17710;52.520;13.352;2022-09-09T06:50:46;13.43;;;3.03;;
31043;SDS011;17710;52.520;13.352;2022-09-09T06:53:15;7.40;;;2.85;;
31043;SDS011;17710;52.520;13.352;2022-09-09T06:55:52;9.73;;;2.35;;
31043;SDS011;17710;52.520;13.352;2022-09-09T06:58:19;7.50;;;2.97;;
31043;SDS011;17710;52.520;13.352;2022-09-09T07:00:46;4.85;;;2.63;;
31043;SDS011;17710;52.520;13.352;2022-09-09T07:03:15;8.60;;;2.88;;
31043;SDS011;17710;52.520;13.352;2022-09-09T07:05:43;8.70;;;3.13;;
31043;SDS011;17710;52.520;13.352;2022-09-09T07:08:12;7.18;;;2.75;;
31043;SDS011;17710;52.520;13.352;2022-09-09T07:10:39;4.45;;;2.20;;
31043;SDS011;17710;52.520;13.352;2022-09-09T07:13:07;7.22;;;2.22;;
31043;SDS011;17710;52.520;13.352;2022-09-09T07:15:34;5.55;;;2.22;;
31043;SDS011;17710;52.520;13.352;2022-09-09T07:18:01;5.07;;;2.13;;
31043;SDS011;17710;52.520;13.352;2022-09-09T07:20:31;12.93;;;2.55;;
31043;SDS011;17710;52.520;13.352;2022-09-09T07:22:57;5.75;;;2.42;;
31043;SDS011;17710;52.520;13.352;2022-09-09T07:25:24;6.43;;;2.78;;
31043;SDS011;17710;52.520;13.352;2022-09-09T07:27:52;2.47;;;1.85;;
31043;SDS011;17710;52.520;13.352;2022-09-09T07:30:21;3.25;;;2.00;;
31043;SDS011;17710;52.520;13.352;2022-09-09T07:32:47;4.85;;;2.08;;
31043;SDS011;17710;52.520;13.352;2022-09-09T07:35:16;5.45;;;1.88;;
31043;SDS011;17710;52.520;13.352;2022-09-09T07:37:43;5.00;;;1.52;;
31043;SDS011;17710;52.520;13.352;2022-09-09T07:40:10;3.88;;;1.40;;
31043;SDS011;17710;52.520;13.352;2022-09-09T07:42:36;8.73;;;1.70;;
31043;SDS011;17710;52.520;13.352;2022-09-09T07:45:03;7.47;;;1.58;;
31043;SDS011;17710;52.520;13.352;2022-09-09T07:47:31;12.13;;;1.75;;
31043;SDS011;17710;52.520;13.352;2022-09-09T07:49:58;5.65;;;1.58;;
31043;SDS011;17710;52.520;13.352;2022-09-09T07:52:24;10.18;;;1.67;;
31043;SDS011;17710;52.520;13.352;2022-09-09T07:54:52;3.38;;;1.30;;
31043;SDS011;17710;52.520;13.352;2022-09-09T07:57:18;4.53;;;1.50;;
31043;SDS011;17710;52.520;13.352;2022-09-09T07:59:45;4.35;;;1.13;;
31043;SDS011;17710;52.520;13.352;2022-09-09T08:02:14;3.65;;;1.30;;
31043;SDS011;17710;52.520;13.352;2022-09-09T08:04:43;3.67;;;1.40;;
31043;SDS011;17710;52.520;13.352;2022-09-09T08:07:11;10.95;;;1.73;;
31043;SDS011;17710;52.520;13.352;2022-09-09T08:09:38;3.67;;;1.38;;
31043;SDS011;17710;52.520;13.352;2022-09-09T08:12:04;4.63;;;1.30;;
31043;SDS011;17710;52.520;13.352;2022-09-09T08:14:34;6.07;;;2.13;;
31043;SDS011;17710;52.520;13.352;2022-09-09T08:17:01;2.75;;;1.10;;
31043;SDS011;17710;52.520;13.352;2022-09-09T08:19:27;3.28;;;1.20;;
31043;SDS011;17710;52.520;13.352;2022-09-09T08:22:00;5.88;;;1.50;;
31043;SDS011;17710;52.520;13.352;2022-09-09T08:24:27;1.85;;;1.00;;
31043;SDS011;17710;52.520;13.352;2022-09-09T08:26:54;4.72;;;2.00;;
31043;SDS011;17710;52.520;13.352;2022-09-09T08:29:21;5.32;;;1.20;;
31043;SDS011;17710;52.520;13.352;2022-09-09T08:31:53;5.22;;;1.10;;
31043;SDS011;17710;52.520;13.352;2022-09-09T08:34:22;5.35;;;1.40;;
31043;SDS011;17710;52.520;13.352;2022-09-09T08:36:51;3.58;;;1.23;;
31043;SDS011;17710;52.520;13.352;2022-09-09T08:39:19;3.40;;;1.13;;
31043;SDS011;17710;52.520;13.352;2022-09-09T08:41:53;4.18;;;1.00;;
31043;SDS011;17710;52.520;13.352;2022-09-09T08:44:34;5.75;;;1.00;;
31043;SDS011;17710;52.520;13.352;2022-09-09T08:47:09;10.73;;;1.95;;
31043;SDS011;17710;52.520;13.352;2022-09-09T08:49:47;3.35;;;1.30;;
31043;SDS011;17710;52.520;13.352;2022-09-09T08:52:25;4.03;;;1.38;;
31043;SDS011;17710;52.520;13.352;2022-09-09T08:54:55;4.20;;;1.58;;
31043;SDS011;17710;52.520;13.352;2022-09-09T08:57:25;7.10;;;1.52;;
31043;SDS011;17710;52.520;13.352;2022-09-09T08:59:57;3.95;;;1.10;;
31043;SDS011;17710;52.520;13.352;2022-09-09T09:02:25;5.78;;;1.25;;
31043;SDS011;17710;52.520;13.352;2022-09-09T09:05:01;3.50;;;1.00;;
31043;SDS011;17710;52.520;13.352;2022-09-09T09:07:39;2.85;;;0.90;;
31043;SDS011;17710;52.520;13.352;2022-09-09T09:10:21;3.03;;;1.13;;
31043;SDS011;17710;52.520;13.352;2022-09-09T09:13:01;8.52;;;1.73;;
31043;SDS011;17710;52.520;13.352;2022-09-09T09:15:30;7.60;;;1.92;;
31043;SDS011;17710;52.520;13.352;2022-09-09T09:18:01;6.22;;;1.92;;
31043;SDS011;17710;52.520;13.352;2022-09-09T09:20:31;9.38;;;1.63;;
31043;SDS011;17710;52.520;13.352;2022-09-09T09:23:06;7.90;;;1.33;;
31043;SDS011;17710;52.520;13.352;2022-09-09T09:25:44;1.95;;;0.90;;
31043;SDS011;17710;52.520;13.352;2022-09-09T09:28:13;3.03;;;1.20;;
31043;SDS011;17710;52.520;13.352;2022-09-09T09:30:48;5.60;;;1.27;;
31043;SDS011;17710;52.520;13.352;2022-09-09T09:33:26;6.75;;;1.73;;
31043;SDS011;17710;52.520;13.352;2022-09-09T09:35:56;8.25;;;1.20;;
31043;SDS011;17710;52.520;13.352;2022-09-09T09:38:27;6.45;;;1.30;;
31043;SDS011;17710;52.520;13.352;2022-09-09T09:40:58;7.72;;;1.30;;
31043;SDS011;17710;52.520;13.352;2022-09-09T09:43:26;5.03;;;1.63;;
31043;SDS011;17710;52.520;13.352;2022-09-09T09:45:56;6.13;;;1.42;;
31043;SDS011;17710;52.520;13.352;2022-09-09T09:48:24;5.65;;;1.35;;
31043;SDS011;17710;52.520;13.352;2022-09-09T09:50:52;3.47;;;1.33;;
31043;SDS011;17710;52.520;13.352;2022-09-09T09:53:23;2.55;;;0.93;;
31043;SDS011;17710;52.520;13.352;2022-09-09T09:55:55;3.97;;;1.10;;
31043;SDS011;17710;52.520;13.352;2022-09-09T09:58:25;4.10;;;0.90;;
31043;SDS011;17710;52.520;13.352;2022-09-09T10:00:54;6.30;;;1.15;;
31043;SDS011;17710;52.520;13.352;2022-09-09T10:03:22;2.55;;;1.23;;
31043;SDS011;17710;52.520;13.352;2022-09-09T10:05:53;3.15;;;0.90;;
31043;SDS011;17710;52.520;13.352;2022-09-09T10:08:21;8.55;;;1.00;;
31043;SDS011;17710;52.520;13.352;2022-09-09T10:10:54;3.72;;;0.95;;
31043;SDS011;17710;52.520;13.352;2022-09-09T10:13:34;5.22;;;1.00;;
31043;SDS011;17710;52.520;13.352;2022-09-09T10:16:09;6.95;;;1.40;;
31043;SDS011;17710;52.520;13.352;2022-09-09T10:18:49;5.95;;;1.25;;
31043;SDS011;17710;52.520;13.352;2022-09-09T10:21:32;2.03;;;0.93;;
31043;SDS011;17710;52.520;13.352;2022-09-09T10:24:21;3.58;;;0.85;;
31043;SDS011;17710;52.520;13.352;2022-09-09T10:27:01;3.67;;;1.13;;
31043;SDS011;17710;52.520;13.352;2022-09-09T10:29:40;6.13;;;1.10;;
31043;SDS011;17710;52.520;13.352;2022-09-09T10:35:10;7.07;;;0.70;;
31043;SDS011;17710;52.520;13.352;2022-09-09T10:37:50;6.78;;;1.00;;
31043;SDS011;17710;52.520;13.352;2022-09-09T10:40:28;4.43;;;0.70;;
31043;SDS011;17710;52.520;13.352;2022-09-09T10:43:02;3.95;;;1.08;;
31043;SDS011;17710;52.520;13.352;2022-09-09T10:45:38;3.50;;;0.65;;
31043;SDS011;17710;52.520;13.352;2022-09-09T10:48:19;3.25;;;1.10;;
31043;SDS011;17710;52.520;13.352;2022-09-09T10:50:58;5.35;;;1.10;;
31043;SDS011;17710;52.520;13.352;2022-09-09T10:53:40;2.63;;;0.60;;
31043;SDS011;17710;52.520;13.352;2022-09-09T10:56:17;2.33;;;0.90;;
31043;SDS011;17710;52.520;13.352;2022-09-09T10:58:51;4.68;;;0.93;;
31043;SDS011;17710;52.520;13.352;2022-09-09T11:01:29;39.67;;;2.60;;
31043;SDS011;17710;52.520;13.352;2022-09-09T11:04:05;2.33;;;0.68;;
31043;SDS011;17710;52.520;13.352;2022-09-09T11:06:44;1.55;;;0.70;;
31043;SDS011;17710;52.520;13.352;2022-09-09T11:09:19;2.42;;;0.80;;
31043;SDS011;17710;52.520;13.352;2022-09-09T11:11:51;2.65;;;1.02;;
31043;SDS011;17710;52.520;13.352;2022-09-09T11:14:19;2.72;;;0.90;;
31043;SDS011;17710;52.520;13.352;2022-09-09T11:16:59;4.07;;;0.80;;
31043;SDS011;17710;52.520;13.352;2022-09-09T11:19:30;5.40;;;1.40;;
31043;SDS011;17710;52.520;13.352;2022-09-09T11:22:00;5.30;;;1.20;;
31043;SDS011;17710;52.520;13.352;2022-09-09T11:24:31;2.70;;;1.20;;
31043;SDS011;17710;52.520;13.352;2022-09-09T11:27:08;3.25;;;0.82;;
31043;SDS011;17710;52.520;13.352;2022-09-09T11:29:47;1.65;;;0.73;;
31043;SDS011;17710;52.520;13.352;2022-09-09T11:32:43;4.63;;;1.00;;
31043;SDS011;17710;52.520;13.352;2022-09-09T11:35:33;5.65;;;1.42;;
31043;SDS011;17710;52.520;13.352;2022-09-09T11:38:13;3.42;;;0.98;;
31043;SDS011;17710;52.520;13.352;2022-09-09T11:43:11;2.78;;;0.60;;
31043;SDS011;17710;52.520;13.352;2022-09-09T11:45:42;6.82;;;1.42;;
31043;SDS011;17710;52.520;13.352;2022-09-09T11:48:28;3.92;;;0.70;;
31043;SDS011;17710;52.520;13.352;2022-09-09T11:51:07;2.83;;;0.63;;
31043;SDS011;17710;52.520;13.352;2022-09-09T11:53:47;2.92;;;0.50;;
31043;SDS011;17710;52.520;13.352;2022-09-09T11:56:23;6.18;;;0.63;;
31043;SDS011;17710;52.520;13.352;2022-09-09T11:58:56;2.92;;;1.00;;
31043;SDS011;17710;52.520;13.352;2022-09-09T12:01:34;3.20;;;1.00;;
31043;SDS011;17710;52.520;13.352;2022-09-09T12:04:27;2.30;;;1.02;;
31043;SDS011;17710;52.520;13.352;2022-09-09T12:06:58;5.25;;;0.57;;
31043;SDS011;17710;52.520;13.352;2022-09-09T12:09:33;2.88;;;1.13;;
31043;SDS011;17710;52.520;13.352;2022-09-09T12:12:23;4.93;;;0.82;;
31043;SDS011;17710;52.520;13.352;2022-09-09T12:14:59;1.48;;;0.50;;
31043;SDS011;17710;52.520;13.352;2022-09-09T12:17:43;2.83;;;0.80;;
31043;SDS011;17710;52.520;13.352;2022-09-09T12:20:15;3.10;;;0.80;;
31043;SDS011;17710;52.520;13.352;2022-09-09T12:22:47;2.13;;;0.52;;
31043;SDS011;17710;52.520;13.352;2022-09-09T12:25:21;3.30;;;0.77;;
31043;SDS011;17710;52.520;13.352;2022-09-09T12:27:58;4.88;;;0.80;;
31043;SDS011;17710;52.520;13.352;2022-09-09T12:30:41;3.42;;;0.60;;
31043;SDS011;17710;52.520;13.352;2022-09-09T12:33:17;1.95;;;0.55;;
31043;SDS011;17710;52.520;13.352;2022-09-09T12:35:46;5.50;;;0.80;;
31043;SDS011;17710;52.520;13.352;2022-09-09T12:38:20;6.40;;;0.93;;
31043;SDS011;17710;52.520;13.352;2022-09-09T12:40:54;2.75;;;0.73;;
31043;SDS011;17710;52.520;13.352;2022-09-09T12:43:22;3.15;;;1.27;;
31043;SDS011;17710;52.520;13.352;2022-09-09T12:45:50;2.60;;;0.75;;
31043;SDS011;17710;52.520;13.352;2022-09-09T12:48:25;1.38;;;0.90;;
31043;SDS011;17710;52.520;13.352;2022-09-09T12:51:00;2.30;;;0.73;;
31043;SDS011;17710;52.520;13.352;2022-09-09T12:53:29;3.28;;;0.60;;
31043;SDS011;17710;52.520;13.352;2022-09-09T12:55:57;3.22;;;0.55;;
31043;SDS011;17710;52.520;13.352;2022-09-09T12:58:26;3.40;;;1.05;;
31043;SDS011;17710;52.520;13.352;2022-09-09T13:00:57;2.53;;;0.80;;
31043;SDS011;17710;52.520;13.352;2022-09-09T13:03:26;3.80;;;0.70;;
31043;SDS011;17710;52.520;13.352;2022-09-09T13:05:57;3.28;;;0.80;;
31043;SDS011;17710;52.520;13.352;2022-09-09T13:08:26;6.72;;;0.80;;
31043;SDS011;17710;52.520;13.352;2022-09-09T13:10:54;4.15;;;0.98;;
31043;SDS011;17710;52.520;13.352;2022-09-09T13:13:30;3.75;;;0.95;;
31043;SDS011;17710;52.520;13.352;2022-09-09T13:16:01;3.60;;;0.93;;
31043;SDS011;17710;52.520;13.352;2022-09-09T13:18:33;1.95;;;0.70;;
31043;SDS011;17710;52.520;13.352;2022-09-09T13:21:04;4.50;;;0.73;;
31043;SDS011;17710;52.520;13.352;2022-09-09T13:23:36;4.55;;;0.70;;
31043;SDS011;17710;52.520;13.352;2022-09-09T13:26:04;3.78;;;0.80;;
31043;SDS011;17710;52.520;13.352;2022-09-09T13:28:33;3.85;;;0.82;;
31043;SDS011;17710;52.520;13.352;2022-09-09T13:31:17;4.55;;;0.80;;
31043;SDS011;17710;52.520;13.352;2022-09-09T13:33:48;6.55;;;1.10;;
31043;SDS011;17710;52.520;13.352;2022-09-09T13:36:15;6.10;;;0.77;;
31043;SDS011;17710;52.520;13.352;2022-09-09T13:38:54;4.13;;;0.80;;
31043;SDS011;17710;52.520;13.352;2022-09-09T13:41:24;6.03;;;0.90;;
31043;SDS011;17710;52.520;13.352;2022-09-09T13:43:56;3.25;;;0.50;;
31043;SDS011;17710;52.520;13.352;2022-09-09T13:46:29;3.15;;;1.17;;
31043;SDS011;17710;52.520;13.352;2022-09-09T13:48:59;4.18;;;0.95;;
31043;SDS011;17710;52.520;13.352;2022-09-09T13:51:32;2.67;;;0.82;;
31043;SDS011;17710;52.520;13.352;2022-09-09T13:54:04;3.63;;;0.82;;
31043;SDS011;17710;52.520;13.352;2022-09-09T13:56:32;3.25;;;0.85;;
31043;SDS011;17710;52.520;13.352;2022-09-09T13:58:59;4.88;;;0.80;;
31043;SDS011;17710;52.520;13.352;2022-09-09T14:01:27;2.92;;;1.05;;
31043;SDS011;17710;52.520;13.352;2022-09-09T14:03:54;2.60;;;0.70;;
31043;SDS011;17710;52.520;13.352;2022-09-09T14:06:23;2.90;;;0.60;;
31043;SDS011;17710;52.520;13.352;2022-09-09T14:08:50;5.72;;;1.33;;
31043;SDS011;17710;52.520;13.352;2022-09-09T14:11:20;2.92;;;0.68;;
31043;SDS011;17710;52.520;13.352;2022-09-09T14:13:47;4.28;;;0.82;;
31043;SDS011;17710;52.520;13.352;2022-09-09T14:16:16;4.85;;;1.25;;
31043;SDS011;17710;52.520;13.352;2022-09-09T14:18:43;5.40;;;0.80;;
31043;SDS011;17710;52.520;13.352;2022-09-09T14:21:10;4.90;;;0.90;;
31043;SDS011;17710;52.520;13.352;2022-09-09T14:23:37;3.33;;;0.75;;
31043;SDS011;17710;52.520;13.352;2022-09-09T14:26:04;5.35;;;0.80;;
31043;SDS011;17710;52.520;13.352;2022-09-09T14:28:32;6.13;;;0.90;;
31043;SDS011;17710;52.520;13.352;2022-09-09T14:30:59;2.08;;;0.60;;
31043;SDS011;17710;52.520;13.352;2022-09-09T14:33:26;3.22;;;0.93;;
31043;SDS011;17710;52.520;13.352;2022-09-09T14:35:55;3.28;;;0.70;;
31043;SDS011;17710;52.520;13.352;2022-09-09T14:38:22;5.78;;;1.15;;
31043;SDS011;17710;52.520;13.352;2022-09-09T14:40:48;1.67;;;0.75;;
31043;SDS011;17710;52.520;13.352;2022-09-09T14:43:15;4.13;;;0.70;;
31043;SDS011;17710;52.520;13.352;2022-09-09T14:45:43;2.92;;;0.80;;
31043;SDS011;17710;52.520;13.352;2022-09-09T14:48:09;3.08;;;0.63;;
31043;SDS011;17710;52.520;13.352;2022-09-09T14:50:36;1.27;;;0.60;;
31043;SDS011;17710;52.520;13.352;2022-09-09T14:53:05;4.05;;;0.90;;
31043;SDS011;17710;52.520;13.352;2022-09-09T14:55:34;7.25;;;1.48;;
31043;SDS011;17710;52.520;13.352;2022-09-09T14:58:02;4.60;;;1.00;;
31043;SDS011;17710;52.520;13.352;2022-09-09T15:00:28;2.47;;;0.80;;
31043;SDS011;17710;52.520;13.352;2022-09-09T15:02:56;5.28;;;0.95;;
31043;SDS011;17710;52.520;13.352;2022-09-09T15:05:22;2.17;;;0.65;;
31043;SDS011;17710;52.520;13.352;2022-09-09T15:07:50;5.50;;;0.90;;
31043;SDS011;17710;52.520;13.352;2022-09-09T15:10:16;2.15;;;0.90;;